sensor_id;sensor_type;location;lat;lon;timestamp;pressure;altitude;pressure_sealevel;temperature;humidity
73551;BME280;61816;53.582;10.096;2023-05-20T00:01:51;54233.25;;;-144.73;59.23
73551;BME280;61816;53.582;10.096;2023-05-20T00:04:17;54220.94;;;-144.73;59.38
73551;BME280;61816;53.582;10.096;2023-05-20T00:06:42;54282.50;;;-144.73;59.55
73551;BME280;61816;53.582;10.096;2023-05-20T00:09:07;54251.72;;;-144.73;58.73
73551;BME280;61816;53.582;10.096;2023-05-20T00:11:33;54276.34;;;-144.73;58.80
73551;BME280;61816;53.582;10.096;2023-05-20T00:13:58;54227.09;;;-144.73;59.21
73551;BME280;61816;53.582;10.096;2023-05-20T00:16:23;54243.50;;;-144.73;58.48
73551;BME280;61816;53.582;10.096;2023-05-20T00:18:49;54259.91;;;-144.73;58.89
73551;BME280;61816;53.582;10.096;2023-05-20T00:21:14;54243.50;;;-144.73;58.28
73551;BME280;61816;53.582;10.096;2023-05-20T00:23:40;54251.72;;;-144.73;58.77
73551;BME280;61816;53.582;10.096;2023-05-20T00:26:05;54259.91;;;-144.73;59.11
73551;BME280;61816;53.582;10.096;2023-05-20T00:28:30;54251.72;;;-144.73;59.47
73551;BME280;61816;53.582;10.096;2023-05-20T00:30:55;54276.34;;;-144.73;59.43
73551;BME280;61816;53.582;10.096;2023-05-20T00:33:21;54257.88;;;-144.73;58.80
73551;BME280;61816;53.582;10.096;2023-05-20T00:35:46;54259.91;;;-144.73;59.47
73551;BME280;61816;53.582;10.096;2023-05-20T00:38:11;54276.34;;;-144.73;59.25
73551;BME280;61816;53.582;10.096;2023-05-20T00:40:37;54247.59;;;-144.73;59.37
73551;BME280;61816;53.582;10.096;2023-05-20T00:43:02;54239.41;;;-144.73;59.63
73551;BME280;61816;53.582;10.096;2023-05-20T00:45:27;54231.19;;;-144.73;59.85
73551;BME280;61816;53.582;10.096;2023-05-20T00:47:53;54247.59;;;-144.73;59.89
73551;BME280;61816;53.582;10.096;2023-05-20T00:50:21;54233.25;;;-144.73;59.83
73551;BME280;61816;53.582;10.096;2023-05-20T00:52:47;54296.88;;;-144.73;59.79
73551;BME280;61816;53.582;10.096;2023-05-20T00:55:15;54276.34;;;-144.73;60.23
73551;BME280;61816;53.582;10.096;2023-05-20T00:57:41;54284.56;;;-144.73;60.78
73551;BME280;61816;53.582;10.096;2023-05-20T01:00:08;54284.56;;;-144.73;60.67
73551;BME280;61816;53.582;10.096;2023-05-20T01:02:34;54253.75;;;-144.73;61.11
73551;BME280;61816;53.582;10.096;2023-05-20T01:05:00;54235.28;;;-144.73;61.24
73551;BME280;61816;53.582;10.096;2023-05-20T01:07:25;54245.56;;;-144.73;60.71
73551;BME280;61816;53.582;10.096;2023-05-20T01:09:51;54280.44;;;-144.73;61.06
73551;BME280;61816;53.582;10.096;2023-05-20T01:12:25;54227.09;;;-144.73;61.96
73551;BME280;61816;53.582;10.096;2023-05-20T01:14:58;54227.09;;;-144.73;62.25
73551;BME280;61816;53.582;10.096;2023-05-20T01:17:26;54305.06;;;-144.73;62.03
73551;BME280;61816;53.582;10.096;2023-05-20T01:19:57;54227.09;;;-144.73;63.27
73551;BME280;61816;53.582;10.096;2023-05-20T01:22:25;54251.72;;;-144.73;62.98
73551;BME280;61816;53.582;10.096;2023-05-20T01:24:51;54280.44;;;-144.73;63.36
73551;BME280;61816;53.582;10.096;2023-05-20T01:27:20;54280.44;;;-144.73;62.77
73551;BME280;61816;53.582;10.096;2023-05-20T01:29:47;54251.72;;;-144.73;63.46
73551;BME280;61816;53.582;10.096;2023-05-20T01:32:20;54280.44;;;-144.73;64.49
73551;BME280;61816;53.582;10.096;2023-05-20T01:34:49;54247.59;;;-144.73;64.57
73551;BME280;61816;53.582;10.096;2023-05-20T01:37:16;54237.34;;;-144.73;63.76
73551;BME280;61816;53.582;10.096;2023-05-20T01:39:41;54264.03;;;-144.73;64.94
73551;BME280;61816;53.582;10.096;2023-05-20T01:42:08;54227.09;;;-144.73;64.72
73551;BME280;61816;53.582;10.096;2023-05-20T01:44:34;54251.72;;;-144.73;65.10
73551;BME280;61816;53.582;10.096;2023-05-20T01:46:59;54292.75;;;-144.73;65.58
73551;BME280;61816;53.582;10.096;2023-05-20T01:49:25;54284.56;;;-144.73;65.27
73551;BME280;61816;53.582;10.096;2023-05-20T01:51:51;54253.75;;;-144.73;66.07
73551;BME280;61816;53.582;10.096;2023-05-20T01:54:16;54241.44;;;-144.73;67.66
73551;BME280;61816;53.582;10.096;2023-05-20T01:56:41;54222.97;;;-144.73;68.80
73551;BME280;61816;53.582;10.096;2023-05-20T01:59:07;54227.09;;;-144.73;69.23
73551;BME280;61816;53.582;10.096;2023-05-20T02:01:32;54247.59;;;-144.73;70.73
73551;BME280;61816;53.582;10.096;2023-05-20T02:03:57;54251.72;;;-144.73;72.97
73551;BME280;61816;53.582;10.096;2023-05-20T02:06:23;54245.56;;;-144.73;72.91
73551;BME280;61816;53.582;10.096;2023-05-20T02:08:48;54259.91;;;-144.73;75.51
73551;BME280;61816;53.582;10.096;2023-05-20T02:11:13;54222.97;;;-144.73;77.30
73551;BME280;61816;53.582;10.096;2023-05-20T02:13:39;54255.81;;;-144.73;79.43
73551;BME280;61816;53.582;10.096;2023-05-20T02:16:04;54231.19;;;-144.73;79.70
73551;BME280;61816;53.582;10.096;2023-05-20T02:18:30;54231.19;;;-144.73;79.42
73551;BME280;61816;53.582;10.096;2023-05-20T02:21:04;54255.81;;;-144.73;82.28
73551;BME280;61816;53.582;10.096;2023-05-20T02:23:30;54235.28;;;-144.73;83.80
73551;BME280;61816;53.582;10.096;2023-05-20T02:25:55;54231.19;;;-144.73;86.42
73551;BME280;61816;53.582;10.096;2023-05-20T02:28:21;54227.09;;;-144.73;88.55
73551;BME280;61816;53.582;10.096;2023-05-20T02:30:46;54276.34;;;-144.73;89.31
73551;BME280;61816;53.582;10.096;2023-05-20T02:33:12;54229.13;;;-144.73;91.45
73551;BME280;61816;53.582;10.096;2023-05-20T02:35:38;54218.88;;;-144.73;92.11
73551;BME280;61816;53.582;10.096;2023-05-20T02:38:04;54266.06;;;-144.73;94.45
73551;BME280;61816;53.582;10.096;2023-05-20T02:40:29;54227.09;;;-144.73;96.17
73551;BME280;61816;53.582;10.096;2023-05-20T02:42:55;54288.66;;;-144.73;95.51
73551;BME280;61816;53.582;10.096;2023-05-20T02:45:20;54264.03;;;-144.73;97.46
73551;BME280;61816;53.582;10.096;2023-05-20T02:47:45;54243.50;;;-144.73;97.14
73551;BME280;61816;53.582;10.096;2023-05-20T02:50:11;54282.50;;;-144.73;98.26
73551;BME280;61816;53.582;10.096;2023-05-20T02:52:36;54276.34;;;-144.73;98.66
73551;BME280;61816;53.582;10.096;2023-05-20T02:55:01;54268.13;;;-144.73;98.71
73551;BME280;61816;53.582;10.096;2023-05-20T02:57:27;54259.91;;;-144.73;100.00
73551;BME280;61816;53.582;10.096;2023-05-20T02:59:53;54235.28;;;-144.73;99.65
73551;BME280;61816;53.582;10.096;2023-05-20T03:02:19;54251.72;;;-144.73;100.00
73551;BME280;61816;53.582;10.096;2023-05-20T03:04:44;54264.03;;;-144.73;100.00
73551;BME280;61816;53.582;10.096;2023-05-20T03:07:11;54268.13;;;-144.73;100.00
73551;BME280;61816;53.582;10.096;2023-05-20T03:09:36;54222.97;;;-144.73;100.00
73551;BME280;61816;53.582;10.096;2023-05-20T03:12:02;54280.44;;;-144.73;100.00
73551;BME280;61816;53.582;10.096;2023-05-20T03:14:27;54284.56;;;-144.73;100.00
73551;BME280;61816;53.582;10.096;2023-05-20T03:16:53;54210.66;;;-144.73;100.00
73551;BME280;61816;53.582;10.096;2023-05-20T03:19:21;54264.03;;;-144.73;100.00
73551;BME280;61816;53.582;10.096;2023-05-20T03:21:47;54276.34;;;-144.73;100.00
73551;BME280;61816;53.582;10.096;2023-05-20T03:24:13;54251.72;;;-144.73;100.00
73551;BME280;61816;53.582;10.096;2023-05-20T03:26:38;54342.03;;;-144.73;100.00
73551;BME280;61816;53.582;10.096;2023-05-20T03:29:08;54329.72;;;-144.73;100.00
73551;BME280;61816;53.582;10.096;2023-05-20T03:31:33;54239.41;;;-144.73;100.00
73551;BME280;61816;53.582;10.096;2023-05-20T03:33:59;54261.97;;;-144.73;100.00
73551;BME280;61816;53.582;10.096;2023-05-20T03:36:25;54280.44;;;-144.73;100.00
73551;BME280;61816;53.582;10.096;2023-05-20T03:38:50;54251.72;;;-144.73;100.00
73551;BME280;61816;53.582;10.096;2023-05-20T03:41:15;54313.28;;;-144.73;100.00
73551;BME280;61816;53.582;10.096;2023-05-20T03:43:41;54245.56;;;-144.73;100.00
73551;BME280;61816;53.582;10.096;2023-05-20T03:46:06;54276.34;;;-144.73;100.00
73551;BME280;61816;53.582;10.096;2023-05-20T03:48:32;54243.50;;;-144.73;100.00
73551;BME280;61816;53.582;10.096;2023-05-20T03:50:57;54251.72;;;-144.73;100.00
73551;BME280;61816;53.582;10.096;2023-05-20T03:53:22;54239.41;;;-144.73;100.00
73551;BME280;61816;53.582;10.096;2023-05-20T03:55:48;54292.75;;;-144.73;100.00
73551;BME280;61816;53.582;10.096;2023-05-20T03:58:14;54280.44;;;-144.73;100.00
73551;BME280;61816;53.582;10.096;2023-05-20T04:00:40;54259.91;;;-144.73;100.00
73551;BME280;61816;53.582;10.096;2023-05-20T04:03:06;54296.88;;;-144.73;100.00
73551;BME280;61816;53.582;10.096;2023-05-20T04:05:31;54298.91;;;-144.73;100.00
73551;BME280;61816;53.582;10.096;2023-05-20T04:07:56;54239.41;;;-144.73;100.00
73551;BME280;61816;53.582;10.096;2023-05-20T04:10:22;54313.28;;;-144.73;100.00
73551;BME280;61816;53.582;10.096;2023-05-20T04:12:48;54231.19;;;-144.73;100.00
73551;BME280;61816;53.582;10.096;2023-05-20T04:15:13;54292.75;;;-144.73;100.00
73551;BME280;61816;53.582;10.096;2023-05-20T04:17:39;54276.34;;;-144.73;100.00
73551;BME280;61816;53.582;10.096;2023-05-20T04:20:06;54276.34;;;-144.73;100.00
73551;BME280;61816;53.582;10.096;2023-05-20T04:22:32;54280.44;;;-144.73;100.00
73551;BME280;61816;53.582;10.096;2023-05-20T04:24:58;54276.34;;;-144.73;100.00
73551;BME280;61816;53.582;10.096;2023-05-20T04:27:24;54290.72;;;-144.73;100.00
73551;BME280;61816;53.582;10.096;2023-05-20T04:29:50;54247.59;;;-144.73;100.00
73551;BME280;61816;53.582;10.096;2023-05-20T04:32:18;54264.03;;;-144.73;100.00
73551;BME280;61816;53.582;10.096;2023-05-20T04:34:44;54300.97;;;-144.73;100.00
73551;BME280;61816;53.582;10.096;2023-05-20T04:37:10;54235.28;;;-144.73;100.00
73551;BME280;61816;53.582;10.096;2023-05-20T04:39:35;54288.66;;;-144.73;100.00
73551;BME280;61816;53.582;10.096;2023-05-20T04:42:02;54251.72;;;-144.73;100.00
73551;BME280;61816;53.582;10.096;2023-05-20T04:44:27;54268.13;;;-144.73;100.00
73551;BME280;61816;53.582;10.096;2023-05-20T04:46:54;54276.34;;;-144.73;100.00
73551;BME280;61816;53.582;10.096;2023-05-20T04:49:20;54259.91;;;-144.73;100.00
73551;BME280;61816;53.582;10.096;2023-05-20T04:51:45;54288.66;;;-144.73;100.00
73551;BME280;61816;53.582;10.096;2023-05-20T04:54:14;54300.97;;;-144.73;100.00
73551;BME280;61816;53.582;10.096;2023-05-20T04:56:42;54280.44;;;-144.73;100.00
73551;BME280;61816;53.582;10.096;2023-05-20T04:59:08;54266.06;;;-144.73;100.00
73551;BME280;61816;53.582;10.096;2023-05-20T05:01:35;54284.56;;;-144.73;100.00
73551;BME280;61816;53.582;10.096;2023-05-20T05:04:01;54276.34;;;-144.73;100.00
73551;BME280;61816;53.582;10.096;2023-05-20T05:06:26;54276.34;;;-144.73;100.00
73551;BME280;61816;53.582;10.096;2023-05-20T05:08:52;54276.34;;;-144.73;100.00
73551;BME280;61816;53.582;10.096;2023-05-20T05:11:17;54300.97;;;-144.73;100.00
73551;BME280;61816;53.582;10.096;2023-05-20T05:13:42;54259.91;;;-144.73;100.00
73551;BME280;61816;53.582;10.096;2023-05-20T05:16:08;54288.66;;;-144.73;100.00
73551;BME280;61816;53.582;10.096;2023-05-20T05:18:33;54296.88;;;-144.73;100.00
73551;BME280;61816;53.582;10.096;2023-05-20T05:21:03;54311.22;;;-144.73;100.00
73551;BME280;61816;53.582;10.096;2023-05-20T05:23:30;54247.59;;;-144.73;100.00
73551;BME280;61816;53.582;10.096;2023-05-20T05:25:55;54284.56;;;-144.73;100.00
73551;BME280;61816;53.582;10.096;2023-05-20T05:28:21;54255.81;;;-144.73;100.00
73551;BME280;61816;53.582;10.096;2023-05-20T05:30:46;54251.72;;;-144.73;100.00
73551;BME280;61816;53.582;10.096;2023-05-20T05:33:13;54309.19;;;-144.73;100.00
73551;BME280;61816;53.582;10.096;2023-05-20T05:35:40;54239.41;;;-144.73;100.00
73551;BME280;61816;53.582;10.096;2023-05-20T05:38:06;54264.03;;;-144.73;100.00
73551;BME280;61816;53.582;10.096;2023-05-20T05:40:31;54288.66;;;-144.73;100.00
73551;BME280;61816;53.582;10.096;2023-05-20T05:42:56;54280.44;;;-144.73;100.00
73551;BME280;61816;53.582;10.096;2023-05-20T05:45:22;54264.03;;;-144.73;100.00
73551;BME280;61816;53.582;10.096;2023-05-20T05:47:47;54276.34;;;-144.73;100.00
73551;BME280;61816;53.582;10.096;2023-05-20T05:50:12;54313.28;;;-144.73;100.00
73551;BME280;61816;53.582;10.096;2023-05-20T05:52:38;54276.34;;;-144.73;100.00
73551;BME280;61816;53.582;10.096;2023-05-20T05:55:03;54284.56;;;-144.73;100.00
73551;BME280;61816;53.582;10.096;2023-05-20T05:57:29;54251.72;;;-144.73;100.00
73551;BME280;61816;53.582;10.096;2023-05-20T05:59:54;54255.81;;;-144.73;100.00
73551;BME280;61816;53.582;10.096;2023-05-20T06:02:21;54284.56;;;-144.73;100.00
73551;BME280;61816;53.582;10.096;2023-05-20T06:04:46;54296.88;;;-144.73;100.00
73551;BME280;61816;53.582;10.096;2023-05-20T06:07:11;54288.66;;;-144.73;100.00
73551;BME280;61816;53.582;10.096;2023-05-20T06:09:37;54321.50;;;-144.73;100.00
73551;BME280;61816;53.582;10.096;2023-05-20T06:12:03;54296.88;;;-144.73;100.00
73551;BME280;61816;53.582;10.096;2023-05-20T06:14:28;54292.75;;;-144.73;100.00
73551;BME280;61816;53.582;10.096;2023-05-20T06:16:54;54288.66;;;-144.73;100.00
73551;BME280;61816;53.582;10.096;2023-05-20T06:19:19;54305.06;;;-144.73;100.00
73551;BME280;61816;53.582;10.096;2023-05-20T06:21:44;54296.88;;;-144.73;100.00
73551;BME280;61816;53.582;10.096;2023-05-20T06:24:10;54276.34;;;-144.73;100.00
73551;BME280;61816;53.582;10.096;2023-05-20T06:26:35;54280.44;;;-144.73;100.00
73551;BME280;61816;53.582;10.096;2023-05-20T06:29:02;54311.22;;;-144.73;100.00
73551;BME280;61816;53.582;10.096;2023-05-20T06:31:27;54280.44;;;-144.73;100.00
73551;BME280;61816;53.582;10.096;2023-05-20T06:33:54;54280.44;;;-144.73;100.00
73551;BME280;61816;53.582;10.096;2023-05-20T06:36:20;54294.81;;;-144.73;100.00
73551;BME280;61816;53.582;10.096;2023-05-20T06:38:45;54231.19;;;-144.73;100.00
73551;BME280;61816;53.582;10.096;2023-05-20T06:41:11;54255.81;;;-144.73;100.00
73551;BME280;61816;53.582;10.096;2023-05-20T06:43:36;54268.13;;;-144.73;100.00
73551;BME280;61816;53.582;10.096;2023-05-20T06:46:02;54229.13;;;-144.73;100.00
73551;BME280;61816;53.582;10.096;2023-05-20T06:48:27;54342.03;;;-144.73;100.00
73551;BME280;61816;53.582;10.096;2023-05-20T06:50:52;54286.59;;;-144.73;100.00
73551;BME280;61816;53.582;10.096;2023-05-20T06:53:18;54239.41;;;-144.73;100.00
73551;BME280;61816;53.582;10.096;2023-05-20T06:55:43;54313.28;;;-144.73;100.00
73551;BME280;61816;53.582;10.096;2023-05-20T06:58:08;54255.81;;;-144.73;98.60
73551;BME280;61816;53.582;10.096;2023-05-20T07:00:34;54251.72;;;-144.73;97.85
73551;BME280;61816;53.582;10.096;2023-05-20T07:02:59;54239.41;;;-144.73;97.36
73551;BME280;61816;53.582;10.096;2023-05-20T07:05:25;54315.34;;;-144.73;97.22
73551;BME280;61816;53.582;10.096;2023-05-20T07:07:53;54307.13;;;-144.73;97.14
73551;BME280;61816;53.582;10.096;2023-05-20T07:10:18;54284.56;;;-144.73;97.50
73551;BME280;61816;53.582;10.096;2023-05-20T07:12:43;54251.72;;;-144.73;97.17
73551;BME280;61816;53.582;10.096;2023-05-20T07:15:09;54292.75;;;-144.73;95.64
73551;BME280;61816;53.582;10.096;2023-05-20T07:17:35;54294.81;;;-144.73;96.15
73551;BME280;61816;53.582;10.096;2023-05-20T07:20:00;54296.88;;;-144.73;95.95
73551;BME280;61816;53.582;10.096;2023-05-20T07:22:26;54278.41;;;-144.73;94.69
73551;BME280;61816;53.582;10.096;2023-05-20T07:24:51;54284.56;;;-144.73;92.84
73551;BME280;61816;53.582;10.096;2023-05-20T07:27:17;54255.81;;;-144.73;91.67
73551;BME280;61816;53.582;10.096;2023-05-20T07:29:42;54231.19;;;-144.73;91.48
73551;BME280;61816;53.582;10.096;2023-05-20T07:32:08;54268.13;;;-144.73;89.31
73551;BME280;61816;53.582;10.096;2023-05-20T07:34:34;54222.97;;;-144.73;89.49
73551;BME280;61816;53.582;10.096;2023-05-20T07:36:59;54227.09;;;-144.73;89.63
73551;BME280;61816;53.582;10.096;2023-05-20T07:39:25;54255.81;;;-144.73;88.86
73551;BME280;61816;53.582;10.096;2023-05-20T07:41:51;54251.72;;;-144.73;88.10
73551;BME280;61816;53.582;10.096;2023-05-20T07:44:16;54247.59;;;-144.73;87.49
73551;BME280;61816;53.582;10.096;2023-05-20T07:46:43;54231.19;;;-144.73;85.30
73551;BME280;61816;53.582;10.096;2023-05-20T07:49:09;54216.81;;;-144.73;85.11
73551;BME280;61816;53.582;10.096;2023-05-20T07:51:35;54194.25;;;-144.73;81.32
73551;BME280;61816;53.582;10.096;2023-05-20T07:54:01;54218.88;;;-144.73;79.57
73551;BME280;61816;53.582;10.096;2023-05-20T07:56:26;54210.66;;;-144.73;79.10
73551;BME280;61816;53.582;10.096;2023-05-20T07:58:54;54210.66;;;-144.73;78.45
73551;BME280;61816;53.582;10.096;2023-05-20T08:01:21;54229.13;;;-144.73;76.58
73551;BME280;61816;53.582;10.096;2023-05-20T08:03:46;54200.41;;;-144.73;77.33
73551;BME280;61816;53.582;10.096;2023-05-20T08:06:12;54247.59;;;-144.73;76.42
73551;BME280;61816;53.582;10.096;2023-05-20T08:08:37;54206.56;;;-144.73;76.54
73551;BME280;61816;53.582;10.096;2023-05-20T08:11:04;54245.56;;;-144.73;73.93
73551;BME280;61816;53.582;10.096;2023-05-20T08:13:30;54231.19;;;-144.73;75.10
73551;BME280;61816;53.582;10.096;2023-05-20T08:15:55;54206.56;;;-144.73;72.79
73551;BME280;61816;53.582;10.096;2023-05-20T08:18:21;54206.56;;;-144.73;73.18
73551;BME280;61816;53.582;10.096;2023-05-20T08:20:47;54194.25;;;-144.73;72.37
73551;BME280;61816;53.582;10.096;2023-05-20T08:23:12;54231.19;;;-144.73;69.88
73551;BME280;61816;53.582;10.096;2023-05-20T08:25:38;54210.66;;;-144.73;69.48
73551;BME280;61816;53.582;10.096;2023-05-20T08:28:04;54227.09;;;-144.73;68.10
73551;BME280;61816;53.582;10.096;2023-05-20T08:30:31;54194.25;;;-144.73;67.47
73551;BME280;61816;53.582;10.096;2023-05-20T08:32:56;54202.44;;;-144.73;64.95
73551;BME280;61816;53.582;10.096;2023-05-20T08:35:23;54247.59;;;-144.73;65.00
73551;BME280;61816;53.582;10.096;2023-05-20T08:37:48;54206.56;;;-144.73;66.33
73551;BME280;61816;53.582;10.096;2023-05-20T08:40:14;54214.78;;;-144.73;62.85
73551;BME280;61816;53.582;10.096;2023-05-20T08:42:43;54243.50;;;-144.73;62.22
73551;BME280;61816;53.582;10.096;2023-05-20T08:45:14;54210.66;;;-144.73;62.81
73551;BME280;61816;53.582;10.096;2023-05-20T08:47:41;54194.25;;;-144.73;63.05
73551;BME280;61816;53.582;10.096;2023-05-20T08:50:11;54202.44;;;-144.73;61.82
73551;BME280;61816;53.582;10.096;2023-05-20T08:52:41;54202.44;;;-144.73;61.65
73551;BME280;61816;53.582;10.096;2023-05-20T08:55:08;54227.09;;;-144.73;62.32
73551;BME280;61816;53.582;10.096;2023-05-20T08:57:36;54202.44;;;-144.73;62.57
73551;BME280;61816;53.582;10.096;2023-05-20T09:00:02;54173.72;;;-144.73;63.88
73551;BME280;61816;53.582;10.096;2023-05-20T09:02:36;54247.59;;;-144.73;62.61
73551;BME280;61816;53.582;10.096;2023-05-20T09:05:03;54231.19;;;-144.73;64.00
73551;BME280;61816;53.582;10.096;2023-05-20T09:07:29;54173.72;;;-144.73;62.62
73551;BME280;61816;53.582;10.096;2023-05-20T09:09:54;54218.88;;;-144.73;60.45
73551;BME280;61816;53.582;10.096;2023-05-20T09:12:20;54163.47;;;-144.73;60.08
73551;BME280;61816;53.582;10.096;2023-05-20T09:14:46;54214.78;;;-144.73;58.71
73551;BME280;61816;53.582;10.096;2023-05-20T09:17:12;54231.19;;;-144.73;60.28
73551;BME280;61816;53.582;10.096;2023-05-20T09:19:37;54177.81;;;-144.73;60.61
73551;BME280;61816;53.582;10.096;2023-05-20T09:22:03;54231.19;;;-144.73;59.76
73551;BME280;61816;53.582;10.096;2023-05-20T09:24:29;54251.72;;;-144.73;60.23
73551;BME280;61816;53.582;10.096;2023-05-20T09:26:55;54342.03;;;-144.73;60.62
73551;BME280;61816;53.582;10.096;2023-05-20T09:29:25;54247.59;;;-144.73;60.60
73551;BME280;61816;53.582;10.096;2023-05-20T09:31:51;54214.78;;;-144.73;62.20
73551;BME280;61816;53.582;10.096;2023-05-20T09:34:19;54218.88;;;-144.73;61.72
73551;BME280;61816;53.582;10.096;2023-05-20T09:36:48;54220.94;;;-144.73;62.00
73551;BME280;61816;53.582;10.096;2023-05-20T09:39:15;54231.19;;;-144.73;61.11
73551;BME280;61816;53.582;10.096;2023-05-20T09:42:06;54239.41;;;-144.73;59.76
73551;BME280;61816;53.582;10.096;2023-05-20T09:44:34;54231.19;;;-144.73;60.03
73551;BME280;61816;53.582;10.096;2023-05-20T09:47:00;54276.34;;;-144.73;59.31
73551;BME280;61816;53.582;10.096;2023-05-20T09:49:27;54214.78;;;-144.73;60.12
73551;BME280;61816;53.582;10.096;2023-05-20T09:51:54;54235.28;;;-144.73;60.56
73551;BME280;61816;53.582;10.096;2023-05-20T09:54:22;54251.72;;;-144.73;60.47
73551;BME280;61816;53.582;10.096;2023-05-20T09:56:49;54237.34;;;-144.73;60.30
73551;BME280;61816;53.582;10.096;2023-05-20T09:59:15;54235.28;;;-144.73;60.49
73551;BME280;61816;53.582;10.096;2023-05-20T10:01:41;54255.81;;;-144.73;60.08
73551;BME280;61816;53.582;10.096;2023-05-20T10:04:08;54227.09;;;-144.73;61.54
73551;BME280;61816;53.582;10.096;2023-05-20T10:12:33;54251.72;;;-144.73;61.04
73551;BME280;61816;53.582;10.096;2023-05-20T10:15:03;54233.25;;;-144.73;61.92
73551;BME280;61816;53.582;10.096;2023-05-20T10:17:38;54227.09;;;-144.73;62.32
73551;BME280;61816;53.582;10.096;2023-05-20T10:20:06;54227.09;;;-144.73;61.44
73551;BME280;61816;53.582;10.096;2023-05-20T10:22:33;54251.72;;;-144.73;61.43
73551;BME280;61816;53.582;10.096;2023-05-20T10:25:04;54210.66;;;-144.73;61.78
73551;BME280;61816;53.582;10.096;2023-05-20T10:27:45;54239.41;;;-144.73;60.73
73551;BME280;61816;53.582;10.096;2023-05-20T10:30:19;54247.59;;;-144.73;61.18
73551;BME280;61816;53.582;10.096;2023-05-20T10:32:52;54247.59;;;-144.73;61.77
73551;BME280;61816;53.582;10.096;2023-05-20T10:35:25;54227.09;;;-144.73;61.93
73551;BME280;61816;53.582;10.096;2023-05-20T10:37:51;54253.75;;;-144.73;62.10
73551;BME280;61816;53.582;10.096;2023-05-20T10:40:19;54206.56;;;-144.73;62.65
73551;BME280;61816;53.582;10.096;2023-05-20T10:42:44;54243.50;;;-144.73;62.28
73551;BME280;61816;53.582;10.096;2023-05-20T10:45:10;54243.50;;;-144.73;62.80
73551;BME280;61816;53.582;10.096;2023-05-20T10:47:41;54227.09;;;-144.73;62.73
73551;BME280;61816;53.582;10.096;2023-05-20T10:50:34;54239.41;;;-144.73;62.12
73551;BME280;61816;53.582;10.096;2023-05-20T10:53:10;54251.72;;;-144.73;61.73
73551;BME280;61816;53.582;10.096;2023-05-20T10:55:40;54255.81;;;-144.73;61.04
73551;BME280;61816;53.582;10.096;2023-05-20T10:58:05;54276.34;;;-144.73;61.81
73551;BME280;61816;53.582;10.096;2023-05-20T11:00:35;54247.59;;;-144.73;61.25
73551;BME280;61816;53.582;10.096;2023-05-20T11:03:02;54210.66;;;-144.73;61.03
73551;BME280;61816;53.582;10.096;2023-05-20T11:05:29;54251.72;;;-144.73;60.84
73551;BME280;61816;53.582;10.096;2023-05-20T11:08:01;54222.97;;;-144.73;61.47
73551;BME280;61816;53.582;10.096;2023-05-20T11:10:27;54214.78;;;-144.73;61.43
73551;BME280;61816;53.582;10.096;2023-05-20T11:12:53;54231.19;;;-144.73;61.76
73551;BME280;61816;53.582;10.096;2023-05-20T11:15:19;54222.97;;;-144.73;60.60
73551;BME280;61816;53.582;10.096;2023-05-20T11:17:52;54231.19;;;-144.73;60.45
73551;BME280;61816;53.582;10.096;2023-05-20T11:20:18;54247.59;;;-144.73;61.08
73551;BME280;61816;53.582;10.096;2023-05-20T11:22:44;54239.41;;;-144.73;60.92
73551;BME280;61816;53.582;10.096;2023-05-20T11:25:09;54227.09;;;-144.73;59.33
73551;BME280;61816;53.582;10.096;2023-05-20T11:27:38;54214.78;;;-144.73;58.60
73551;BME280;61816;53.582;10.096;2023-05-20T11:30:04;54231.19;;;-144.73;58.61
73551;BME280;61816;53.582;10.096;2023-05-20T11:32:30;54235.28;;;-144.73;58.55
73551;BME280;61816;53.582;10.096;2023-05-20T11:34:56;54222.97;;;-144.73;59.14
73551;BME280;61816;53.582;10.096;2023-05-20T11:37:22;54218.88;;;-144.73;59.56
73551;BME280;61816;53.582;10.096;2023-05-20T11:39:48;54220.94;;;-144.73;60.13
73551;BME280;61816;53.582;10.096;2023-05-20T11:42:14;54249.66;;;-144.73;58.92
73551;BME280;61816;53.582;10.096;2023-05-20T11:44:43;54227.09;;;-144.73;59.10
73551;BME280;61816;53.582;10.096;2023-05-20T11:47:09;54214.78;;;-144.73;59.54
73551;BME280;61816;53.582;10.096;2023-05-20T11:49:40;54225.03;;;-144.73;60.42
73551;BME280;61816;53.582;10.096;2023-05-20T11:52:08;54231.19;;;-144.73;61.52
73551;BME280;61816;53.582;10.096;2023-05-20T11:54:36;54186.03;;;-144.73;61.27
73551;BME280;61816;53.582;10.096;2023-05-20T11:57:02;54210.66;;;-144.73;62.38
73551;BME280;61816;53.582;10.096;2023-05-20T11:59:27;54253.75;;;-144.73;62.02
73551;BME280;61816;53.582;10.096;2023-05-20T12:01:53;54268.13;;;-144.73;61.42
73551;BME280;61816;53.582;10.096;2023-05-20T12:04:18;54243.50;;;-144.73;62.19
73551;BME280;61816;53.582;10.096;2023-05-20T12:06:44;54231.19;;;-144.73;62.51
73551;BME280;61816;53.582;10.096;2023-05-20T12:09:10;54264.03;;;-144.73;61.74
73551;BME280;61816;53.582;10.096;2023-05-20T12:11:37;54255.81;;;-144.73;62.47
73551;BME280;61816;53.582;10.096;2023-05-20T12:14:05;54235.28;;;-144.73;62.11
73551;BME280;61816;53.582;10.096;2023-05-20T12:16:32;54243.50;;;-144.73;63.63
73551;BME280;61816;53.582;10.096;2023-05-20T12:18:57;54342.03;;;-144.73;64.53
73551;BME280;61816;53.582;10.096;2023-05-20T12:21:22;54245.56;;;-144.73;63.76
73551;BME280;61816;53.582;10.096;2023-05-20T12:23:48;54198.34;;;-144.73;64.19
73551;BME280;61816;53.582;10.096;2023-05-20T12:26:13;54243.50;;;-144.73;63.03
73551;BME280;61816;53.582;10.096;2023-05-20T12:28:39;54255.81;;;-144.73;62.51
73551;BME280;61816;53.582;10.096;2023-05-20T12:31:04;54276.34;;;-144.73;61.76